createdAt,value
2018-12-20T00:01:16.413Z,-3.20
2018-12-20T00:03:50.438Z,-3.10
2018-12-20T00:06:25.240Z,-3.10
2018-12-20T00:08:59.536Z,-3.20
2018-12-20T00:11:33.526Z,-3.20
2018-12-20T00:14:08.196Z,-3.30
2018-12-20T00:16:42.109Z,-3.30
2018-12-20T00:19:17.163Z,-3.20
2018-12-20T00:21:51.500Z,-3.30
2018-12-20T00:24:25.624Z,-3.40
2018-12-20T00:26:59.841Z,-3.40
2018-12-20T00:29:33.732Z,-3.40
2018-12-20T00:32:08.441Z,-3.40
2018-12-20T00:34:42.624Z,-3.40
2018-12-20T00:37:16.977Z,-3.30
2018-12-20T00:39:51.017Z,-3.30
2018-12-20T00:42:25.768Z,-3.40
2018-12-20T00:44:59.861Z,-3.30
2018-12-20T00:47:34.860Z,-3.40
2018-12-20T00:50:09.846Z,-3.40
2018-12-20T00:52:43.863Z,-3.40
2018-12-20T00:55:18.278Z,-3.40
2018-12-20T00:57:52.432Z,-3.40
2018-12-20T01:00:27.377Z,-3.40
2018-12-20T01:03:02.253Z,-3.50
2018-12-20T01:05:36.299Z,-3.50
2018-12-20T01:08:10.562Z,-3.50
2018-12-20T01:10:45.482Z,-3.50
2018-12-20T01:13:19.485Z,-3.60
2018-12-20T01:15:53.958Z,-3.70
2018-12-20T01:18:28.386Z,-3.60
2018-12-20T01:21:02.392Z,-3.60
2018-12-20T01:23:36.530Z,-3.70
2018-12-20T01:26:11.587Z,-3.70
2018-12-20T01:28:46.134Z,-3.70
2018-12-20T01:31:20.280Z,-3.80
2018-12-20T01:33:54.572Z,-3.80
2018-12-20T01:36:28.731Z,-3.80
2018-12-20T01:39:03.131Z,-3.80
2018-12-20T01:41:38.168Z,-3.80
2018-12-20T01:44:12.188Z,-3.80
2018-12-20T01:46:46.478Z,-3.90
2018-12-20T01:49:20.808Z,-3.90
2018-12-20T01:51:54.892Z,-3.90
2018-12-20T01:54:29.269Z,-4.00
2018-12-20T01:57:04.233Z,-4.00
2018-12-20T01:59:38.144Z,-3.90
2018-12-20T02:02:12.521Z,-3.90
2018-12-20T02:04:46.784Z,-3.90
2018-12-20T02:07:21.080Z,-3.90
2018-12-20T02:09:55.345Z,-4.00
2018-12-20T02:12:29.695Z,-3.90
2018-12-20T02:15:04.089Z,-3.90
2018-12-20T02:17:38.923Z,-3.90
2018-12-20T02:20:13.071Z,-4.00
2018-12-20T02:22:47.358Z,-4.00
2018-12-20T02:25:21.618Z,-4.00
2018-12-20T02:27:55.979Z,-4.00
2018-12-20T02:30:30.091Z,-4.00
2018-12-20T02:33:04.550Z,-4.00
2018-12-20T02:35:38.706Z,-3.90
2018-12-20T02:38:13.333Z,-3.90
2018-12-20T02:40:47.349Z,-4.00
2018-12-20T02:43:21.692Z,-4.00
2018-12-20T02:45:55.727Z,-4.00
2018-12-20T02:48:30.121Z,-4.00
2018-12-20T02:51:08.534Z,-4.10
2018-12-20T02:53:46.889Z,-4.10
2018-12-20T02:56:21.251Z,-4.10
2018-12-20T02:58:55.348Z,-4.20
2018-12-20T03:01:29.688Z,-4.10
2018-12-20T03:04:04.156Z,-4.10
2018-12-20T03:06:42.544Z,-4.10
2018-12-20T03:09:17.006Z,-4.10
2018-12-20T03:11:51.025Z,-4.10
2018-12-20T03:14:25.894Z,-4.10
2018-12-20T03:16:59.962Z,-4.10
2018-12-20T03:19:34.336Z,-4.00
2018-12-20T03:22:08.983Z,-4.00
2018-12-20T03:24:43.276Z,-4.00
2018-12-20T03:27:17.545Z,-4.00
2018-12-20T03:29:51.886Z,-4.00
2018-12-20T03:32:26.752Z,-3.90
2018-12-20T03:35:00.817Z,-3.90
2018-12-20T03:37:35.025Z,-3.90
2018-12-20T03:40:09.450Z,-3.90
2018-12-20T03:42:44.194Z,-3.90
2018-12-20T03:45:18.489Z,-3.80
2018-12-20T03:47:52.660Z,-3.80
2018-12-20T03:50:27.200Z,-3.70
2018-12-20T03:53:02.175Z,-3.80
2018-12-20T03:55:40.732Z,-3.80
2018-12-20T03:58:14.991Z,-3.80
2018-12-20T04:00:49.418Z,-3.80
2018-12-20T04:03:23.482Z,-3.80
2018-12-20T04:05:57.830Z,-3.90
2018-12-20T04:08:32.527Z,-3.90
2018-12-20T04:11:07.383Z,-3.80
2018-12-20T04:13:41.506Z,-3.90
2018-12-20T04:16:16.101Z,-3.90
2018-12-20T04:18:50.009Z,-3.90
2018-12-20T04:21:24.263Z,-3.90
2018-12-20T04:23:58.643Z,-3.90
2018-12-20T04:26:32.696Z,-3.90
2018-12-20T04:29:07.228Z,-3.90
2018-12-20T04:31:41.509Z,-3.80
2018-12-20T04:34:15.779Z,-3.80
2018-12-20T04:36:49.634Z,-3.70
2018-12-20T04:39:24.017Z,-3.80
2018-12-20T04:41:58.386Z,-3.90
2018-12-20T04:44:33.071Z,-3.90
2018-12-20T04:47:07.589Z,-3.80
2018-12-20T04:49:41.941Z,-3.80
2018-12-20T04:52:16.169Z,-3.90
2018-12-20T04:54:50.282Z,-3.90
2018-12-20T04:57:24.664Z,-3.80
2018-12-20T04:59:59.537Z,-3.90
2018-12-20T05:02:33.884Z,-3.80
2018-12-20T05:05:08.033Z,-3.80
2018-12-20T05:07:42.393Z,-3.80
2018-12-20T05:10:16.973Z,-3.80
2018-12-20T05:12:51.118Z,-3.70
2018-12-20T05:15:25.782Z,-3.70
2018-12-20T05:17:59.929Z,-3.70
2018-12-20T05:20:34.149Z,-3.70
2018-12-20T05:23:09.125Z,-3.70
2018-12-20T05:25:43.417Z,-3.60
2018-12-20T05:28:17.830Z,-3.60
2018-12-20T05:30:52.403Z,-3.70
2018-12-20T05:33:27.349Z,-3.70
2018-12-20T05:36:01.510Z,-3.60
2018-12-20T05:38:36.302Z,-3.60
2018-12-20T05:41:11.276Z,-3.70
2018-12-20T05:43:46.028Z,-3.60
2018-12-20T05:46:20.646Z,-3.60
2018-12-20T05:48:54.923Z,-3.70
2018-12-20T05:51:29.051Z,-3.70
2018-12-20T05:54:03.374Z,-3.60
2018-12-20T05:56:37.623Z,-3.60
2018-12-20T05:59:11.766Z,-3.70
2018-12-20T06:01:45.892Z,-3.70
2018-12-20T06:04:20.059Z,-3.70
2018-12-20T06:06:54.451Z,-3.70
2018-12-20T06:09:28.805Z,-3.70
2018-12-20T06:12:03.231Z,-3.70
2018-12-20T06:14:37.912Z,-3.80
2018-12-20T06:17:12.802Z,-3.70
2018-12-20T06:19:46.976Z,-3.60
2018-12-20T06:22:21.316Z,-3.60
2018-12-20T06:24:55.510Z,-3.60
2018-12-20T06:27:29.735Z,-3.50
2018-12-20T06:30:04.452Z,-3.40
2018-12-20T06:32:38.765Z,-3.40
2018-12-20T06:35:12.747Z,-3.40
2018-12-20T06:37:47.278Z,-3.40
2018-12-20T06:40:21.489Z,-3.50
2018-12-20T06:42:55.767Z,-3.50
2018-12-20T06:45:30.219Z,-3.50
2018-12-20T06:48:04.367Z,-3.50
2018-12-20T06:50:38.442Z,-3.40
2018-12-20T06:53:12.655Z,-3.40
2018-12-20T06:55:47.034Z,-3.40
2018-12-20T06:58:21.149Z,-3.50
2018-12-20T07:00:55.442Z,-3.60
2018-12-20T07:03:29.791Z,-3.60
2018-12-20T07:06:04.051Z,-3.60
2018-12-20T07:08:36.752Z,-3.60
2018-12-20T07:11:10.591Z,-3.50
2018-12-20T07:13:44.989Z,-3.40
2018-12-20T07:16:19.434Z,-3.40
2018-12-20T07:18:53.973Z,-3.40
2018-12-20T07:21:28.396Z,-3.40
2018-12-20T07:24:02.714Z,-3.50
2018-12-20T07:26:37.726Z,-3.50
2018-12-20T07:29:11.628Z,-3.50
2018-12-20T07:31:46.037Z,-3.60
2018-12-20T07:34:20.478Z,-3.50
2018-12-20T07:36:54.769Z,-3.50
2018-12-20T07:39:30.321Z,-3.50
2018-12-20T07:42:04.317Z,-3.50
2018-12-20T07:44:38.731Z,-3.50
2018-12-20T07:47:12.575Z,-3.50
2018-12-20T07:49:46.869Z,-3.40
2018-12-20T07:52:21.025Z,-3.40
2018-12-20T07:54:55.215Z,-3.40
2018-12-20T07:57:29.479Z,-3.40
2018-12-20T08:00:04.278Z,-3.50
2018-12-20T08:02:39.225Z,-3.50
2018-12-20T08:05:13.538Z,-3.50
2018-12-20T08:07:48.167Z,-3.40
2018-12-20T08:10:22.488Z,-3.40
2018-12-20T08:12:56.897Z,-3.30
2018-12-20T08:15:31.449Z,-3.30
2018-12-20T08:18:05.409Z,-3.30
2018-12-20T08:20:39.808Z,-3.20
2018-12-20T08:23:13.925Z,-3.20
2018-12-20T08:25:48.296Z,-3.10
2018-12-20T08:28:23.133Z,-3.10
2018-12-20T08:30:57.223Z,-3.10
2018-12-20T08:33:31.970Z,-3.10
2018-12-20T08:36:06.566Z,-3.20
2018-12-20T08:38:40.713Z,-3.20
2018-12-20T08:41:14.934Z,-3.30
2018-12-20T08:43:49.019Z,-3.30
2018-12-20T08:46:23.397Z,-3.40
2018-12-20T08:48:57.306Z,-3.30
2018-12-20T08:51:31.676Z,-3.30
2018-12-20T08:54:05.847Z,-3.30
2018-12-20T08:56:40.673Z,-3.30
2018-12-20T08:59:14.583Z,-3.40
2018-12-20T09:01:48.803Z,-3.40
2018-12-20T09:04:22.911Z,-3.30
2018-12-20T09:06:56.969Z,-3.30
2018-12-20T09:09:31.228Z,-3.30
2018-12-20T09:12:05.592Z,-3.30
2018-12-20T09:14:40.283Z,-3.30
2018-12-20T09:17:14.241Z,-3.30
2018-12-20T09:19:48.579Z,-3.30
2018-12-20T09:22:26.982Z,-3.30
2018-12-20T09:25:01.798Z,-3.30
2018-12-20T09:27:36.107Z,-3.30
2018-12-20T09:30:10.381Z,-3.30
2018-12-20T09:32:44.859Z,-3.20
2018-12-20T09:35:19.624Z,-3.30
2018-12-20T09:37:53.669Z,-3.30
2018-12-20T09:40:27.958Z,-3.30
2018-12-20T09:43:02.184Z,-3.30
2018-12-20T09:45:36.428Z,-3.20
2018-12-20T09:48:10.324Z,-3.30
2018-12-20T09:50:44.556Z,-3.30
2018-12-20T09:53:18.780Z,-3.30
2018-12-20T09:55:53.073Z,-3.30
2018-12-20T09:58:27.320Z,-3.20
2018-12-20T10:01:01.475Z,-3.20
2018-12-20T10:03:35.421Z,-3.10
2018-12-20T10:06:09.500Z,-3.30
2018-12-20T10:08:44.561Z,-3.30
2018-12-20T10:11:18.978Z,-3.30
2018-12-20T10:13:58.111Z,-3.20
2018-12-20T10:16:32.421Z,-3.30
2018-12-20T10:19:06.808Z,-3.30
2018-12-20T10:21:40.784Z,-3.30
2018-12-20T10:24:15.381Z,-3.20
2018-12-20T10:26:49.868Z,-3.30
2018-12-20T10:29:24.326Z,-3.20
2018-12-20T10:31:58.543Z,-3.20
2018-12-20T10:34:32.487Z,-3.30
2018-12-20T10:37:07.092Z,-3.30
2018-12-20T10:39:41.181Z,-3.40
2018-12-20T10:42:15.827Z,-3.30
2018-12-20T10:44:50.532Z,-3.40
2018-12-20T10:47:29.304Z,-3.30
2018-12-20T10:50:02.488Z,-3.20
2018-12-20T10:52:36.688Z,-3.20
2018-12-20T10:55:10.880Z,-3.10
2018-12-20T10:57:44.807Z,-3.10
2018-12-20T11:00:19.983Z,-3.10
2018-12-20T11:02:59.499Z,-3.00
2018-12-20T11:05:38.852Z,-2.80
2018-12-20T11:08:17.710Z,-2.80
2018-12-20T11:10:56.135Z,-2.90
2018-12-20T11:13:30.647Z,-2.90
2018-12-20T11:16:05.206Z,-2.90
2018-12-20T11:18:39.429Z,-2.80
2018-12-20T11:21:13.850Z,-2.80
2018-12-20T11:23:48.225Z,-3.00
2018-12-20T11:26:22.506Z,-3.10
2018-12-20T11:28:56.563Z,-3.10
2018-12-20T11:31:31.095Z,-3.10
2018-12-20T11:34:05.722Z,-3.10
2018-12-20T11:36:40.382Z,-3.00
2018-12-20T11:39:14.599Z,-3.00
2018-12-20T11:41:49.014Z,-3.00
2018-12-20T11:44:23.315Z,-3.10
2018-12-20T11:46:57.748Z,-3.10
2018-12-20T11:49:32.148Z,-3.10
2018-12-20T11:52:06.526Z,-3.10
2018-12-20T11:54:41.354Z,-3.00
2018-12-20T11:57:20.302Z,-3.10
2018-12-20T11:59:54.468Z,-3.00
2018-12-20T12:02:29.658Z,-3.00
2018-12-20T12:05:04.406Z,-2.90
2018-12-20T12:07:38.745Z,-2.90
2018-12-20T12:10:13.559Z,-2.90
2018-12-20T12:12:47.899Z,-2.90
2018-12-20T12:15:22.201Z,-3.00
2018-12-20T12:17:56.301Z,-3.00
2018-12-20T12:20:31.141Z,-3.00
2018-12-20T12:23:05.788Z,-3.10
2018-12-20T12:25:40.359Z,-3.10
2018-12-20T12:28:15.034Z,-3.00
2018-12-20T12:30:49.105Z,-3.00
2018-12-20T12:33:23.489Z,-3.00
2018-12-20T12:35:57.679Z,-3.00
2018-12-20T12:38:31.997Z,-2.90
2018-12-20T12:41:06.395Z,-2.90
2018-12-20T12:43:40.623Z,-2.90
2018-12-20T12:46:15.376Z,-3.00
2018-12-20T12:48:49.377Z,-3.00
2018-12-20T12:51:23.701Z,-3.00
2018-12-20T12:53:58.494Z,-2.90
2018-12-20T12:56:32.874Z,-3.00
2018-12-20T12:59:07.381Z,-3.00
2018-12-20T13:01:41.654Z,-3.00
2018-12-20T13:04:16.374Z,-2.90
2018-12-20T13:06:50.228Z,-2.80
2018-12-20T13:09:25.035Z,-2.90
2018-12-20T13:11:59.258Z,-2.90
2018-12-20T13:14:33.498Z,-3.00
2018-12-20T13:17:07.722Z,-3.00
2018-12-20T13:19:41.838Z,-3.00
2018-12-20T13:22:16.599Z,-2.90
2018-12-20T13:24:51.381Z,-2.90
2018-12-20T13:27:25.383Z,-2.90
2018-12-20T13:29:59.757Z,-3.00
2018-12-20T13:32:33.935Z,-3.00
2018-12-20T13:35:07.992Z,-2.90
2018-12-20T13:37:42.042Z,-2.80
2018-12-20T13:40:16.937Z,-2.80
2018-12-20T13:42:51.657Z,-2.80
2018-12-20T13:45:26.043Z,-2.80
2018-12-20T13:48:00.509Z,-2.80
2018-12-20T13:50:34.692Z,-2.80
2018-12-20T13:53:08.635Z,-2.80
2018-12-20T13:55:42.956Z,-2.90
2018-12-20T13:58:17.099Z,-2.90
2018-12-20T14:00:51.135Z,-3.00
2018-12-20T14:03:25.328Z,-3.00
2018-12-20T14:05:59.518Z,-3.00
2018-12-20T14:08:33.620Z,-3.00
2018-12-20T14:11:08.039Z,-3.00
2018-12-20T14:13:42.244Z,-3.00
2018-12-20T14:16:16.672Z,-2.90
2018-12-20T14:18:55.507Z,-2.90
2018-12-20T14:21:30.651Z,-2.80
2018-12-20T14:24:04.983Z,-2.80
2018-12-20T14:26:39.242Z,-2.80
2018-12-20T14:29:13.473Z,-2.80
2018-12-20T14:31:48.030Z,-2.80
2018-12-20T14:34:22.159Z,-2.70
2018-12-20T14:36:56.054Z,-2.80
2018-12-20T14:39:30.444Z,-2.90
2018-12-20T14:42:05.120Z,-2.90
2018-12-20T14:44:39.178Z,-3.00
2018-12-20T14:47:14.002Z,-2.90
2018-12-20T14:49:48.252Z,-2.90
2018-12-20T14:52:22.795Z,-3.00
2018-12-20T14:54:57.474Z,-2.90
2018-12-20T14:57:32.196Z,-2.90
2018-12-20T15:00:09.189Z,-2.90
2018-12-20T15:02:43.640Z,-2.80
2018-12-20T15:05:18.480Z,-2.80
2018-12-20T15:07:53.593Z,-2.80
2018-12-20T15:10:27.573Z,-2.80
2018-12-20T15:13:01.995Z,-2.80
2018-12-20T15:15:36.345Z,-2.80
2018-12-20T15:18:11.398Z,-2.80
2018-12-20T15:20:45.874Z,-2.80
2018-12-20T15:23:20.055Z,-2.80
2018-12-20T15:25:54.318Z,-2.80
2018-12-20T15:28:28.764Z,-2.80
2018-12-20T15:31:03.386Z,-2.90
2018-12-20T15:33:37.665Z,-2.80
2018-12-20T15:36:11.789Z,-2.80
2018-12-20T15:38:46.028Z,-2.90
2018-12-20T15:41:20.279Z,-2.80
2018-12-20T15:43:54.762Z,-2.80
2018-12-20T15:46:29.087Z,-2.80
2018-12-20T15:49:04.798Z,-2.80
2018-12-20T15:51:39.531Z,-2.80
2018-12-20T15:54:13.750Z,-2.80
2018-12-20T15:56:47.978Z,-2.70
2018-12-20T15:59:22.061Z,-2.80
2018-12-20T16:01:56.491Z,-2.80
2018-12-20T16:04:30.559Z,-2.90
2018-12-20T16:07:04.930Z,-2.80
2018-12-20T16:09:39.051Z,-2.90
2018-12-20T16:12:13.476Z,-2.80
2018-12-20T16:14:48.014Z,-2.80
2018-12-20T16:17:23.012Z,-2.80
2018-12-20T16:19:57.170Z,-2.80
2018-12-20T16:22:31.659Z,-2.70
2018-12-20T16:25:06.753Z,-2.70
2018-12-20T16:27:41.016Z,-2.60
2018-12-20T16:30:15.451Z,-2.60
2018-12-20T16:32:49.588Z,-2.60
2018-12-20T16:35:23.994Z,-2.70
2018-12-20T16:37:58.485Z,-2.60
2018-12-20T16:40:32.940Z,-2.70
2018-12-20T16:43:06.941Z,-2.30
2018-12-20T16:45:41.335Z,-2.10
2018-12-20T16:48:19.659Z,-2.30
2018-12-20T16:50:54.816Z,-2.40
2018-12-20T16:53:28.994Z,-2.50
2018-12-20T16:56:02.927Z,-2.60
2018-12-20T16:58:37.405Z,-2.60
2018-12-20T17:01:12.390Z,-2.60
2018-12-20T17:03:46.882Z,-2.60
2018-12-20T17:06:21.202Z,-2.60
2018-12-20T17:08:55.339Z,-2.50
2018-12-20T17:11:29.614Z,-2.50
2018-12-20T17:14:03.712Z,-2.50
2018-12-20T17:16:38.099Z,-2.60
2018-12-20T17:19:12.724Z,-2.60
2018-12-20T17:21:47.350Z,-2.60
2018-12-20T17:29:31.504Z,-2.60
2018-12-20T17:32:06.436Z,-2.60
2018-12-20T17:34:40.573Z,-2.60
2018-12-20T17:37:14.905Z,-2.60
2018-12-20T17:39:49.201Z,-2.60
2018-12-20T17:42:23.616Z,-2.60
2018-12-20T17:44:58.321Z,-2.50
2018-12-20T17:47:33.284Z,-2.50
2018-12-20T17:50:09.133Z,-2.50
2018-12-20T17:52:43.304Z,-2.50
2018-12-20T17:55:17.889Z,-2.50
2018-12-20T17:57:52.581Z,-2.60
2018-12-20T18:00:27.158Z,-2.50
2018-12-20T18:03:01.984Z,-2.50
2018-12-20T18:05:37.308Z,-2.50
2018-12-20T18:08:14.037Z,-2.50
2018-12-20T18:10:50.607Z,-2.50
2018-12-20T18:13:32.841Z,-2.50
2018-12-20T18:16:08.975Z,-2.60
2018-12-20T18:18:44.370Z,-2.40
2018-12-20T18:21:18.906Z,-2.50
2018-12-20T18:23:54.080Z,-2.50
2018-12-20T18:26:28.343Z,-2.60
2018-12-20T18:31:35.384Z,-2.60
2018-12-20T18:49:30.033Z,-2.50
2018-12-20T18:52:05.303Z,-2.40
2018-12-20T18:54:39.931Z,-2.40
2018-12-20T18:57:14.314Z,-2.40
2018-12-20T18:59:48.536Z,-2.40
2018-12-20T19:02:22.618Z,-2.50
2018-12-20T19:04:56.935Z,-2.50
2018-12-20T19:07:31.169Z,-2.50
2018-12-20T19:10:05.862Z,-2.50
2018-12-20T19:12:40.350Z,-2.40
2018-12-20T19:15:14.450Z,-2.40
2018-12-20T19:17:49.491Z,-2.40
2018-12-20T19:20:23.809Z,-2.40
2018-12-20T19:22:58.897Z,-2.40
2018-12-20T19:25:35.397Z,-2.40
2018-12-20T19:28:10.155Z,-2.40
2018-12-20T19:30:47.010Z,-2.30
2018-12-20T19:33:21.814Z,-2.40
2018-12-20T19:35:55.847Z,-2.40
2018-12-20T19:38:30.058Z,-2.40
2018-12-20T19:41:05.293Z,-2.40
2018-12-20T19:43:39.725Z,-2.40
2018-12-20T19:46:13.975Z,-2.30
2018-12-20T19:48:48.788Z,-2.30
2018-12-20T19:51:23.086Z,-2.30
2018-12-20T19:53:57.846Z,-2.30
2018-12-20T19:56:32.451Z,-2.20
2018-12-20T19:59:06.714Z,-2.30
2018-12-20T20:01:40.678Z,-2.30
2018-12-20T20:04:15.101Z,-2.20
2018-12-20T20:06:49.016Z,-2.20
2018-12-20T20:09:23.387Z,-2.20
2018-12-20T20:11:57.644Z,-2.20
2018-12-20T20:14:31.943Z,-2.30
2018-12-20T20:17:06.763Z,-2.30
2018-12-20T20:19:41.867Z,-2.30
2018-12-20T20:22:16.111Z,-2.30
2018-12-20T20:24:50.571Z,-2.30
2018-12-20T20:27:24.720Z,-2.20
2018-12-20T20:29:59.708Z,-2.20
2018-12-20T20:32:33.832Z,-2.30
2018-12-20T20:35:08.847Z,-2.30
2018-12-20T20:37:43.417Z,-2.20
2018-12-20T20:40:17.871Z,-2.20
2018-12-20T20:42:52.102Z,-2.20
2018-12-20T20:45:26.450Z,-2.20
2018-12-20T20:48:00.411Z,-2.20
2018-12-20T20:50:34.842Z,-2.20
2018-12-20T21:03:20.511Z,-2.30
2018-12-20T21:05:55.041Z,-2.30
2018-12-20T21:08:29.403Z,-2.20
2018-12-20T21:11:04.231Z,-2.20
2018-12-20T21:13:38.290Z,-2.20
2018-12-20T21:16:12.797Z,-2.30
2018-12-20T21:18:48.720Z,-2.30
2018-12-20T21:21:22.741Z,-2.30
2018-12-20T21:23:58.146Z,-2.30
2018-12-20T21:26:32.163Z,-2.30
2018-12-20T21:29:06.862Z,-2.30
2018-12-20T21:31:41.258Z,-2.30
2018-12-20T21:34:16.317Z,-2.20
2018-12-20T21:36:50.291Z,-2.20
2018-12-20T21:39:24.545Z,-2.20
2018-12-20T21:41:59.272Z,-2.10
2018-12-20T21:44:34.374Z,-2.10
2018-12-20T21:47:08.980Z,-2.10
2018-12-20T21:49:43.790Z,-2.20
2018-12-20T21:52:18.079Z,-2.20
2018-12-20T21:54:52.157Z,-2.20
2018-12-20T21:57:26.403Z,-2.20
2018-12-20T22:00:01.345Z,-2.20
2018-12-20T22:28:03.325Z,-2.30
2018-12-20T22:30:37.487Z,-2.20
2018-12-20T22:33:11.795Z,-2.30
2018-12-20T22:35:46.590Z,-2.30
2018-12-20T22:38:20.817Z,-2.30
2018-12-20T22:40:55.045Z,-2.30
2018-12-20T22:43:29.354Z,-2.40
2018-12-20T22:46:03.566Z,-2.40
2018-12-20T22:48:38.115Z,-2.40
2018-12-20T22:51:12.109Z,-2.40
2018-12-20T22:53:46.846Z,-2.40
2018-12-20T22:56:21.986Z,-2.30
2018-12-20T22:58:56.298Z,-2.30
2018-12-20T23:01:30.817Z,-2.20
2018-12-20T23:04:05.443Z,-2.20
2018-12-20T23:06:40.067Z,-2.30
2018-12-20T23:09:14.254Z,-2.30
2018-12-20T23:11:48.599Z,-2.30
2018-12-20T23:14:22.885Z,-2.30
2018-12-20T23:16:57.304Z,-2.30
2018-12-20T23:19:31.325Z,-2.20
2018-12-20T23:22:05.947Z,-2.20
2018-12-20T23:24:40.442Z,-2.20
2018-12-20T23:27:15.113Z,-2.30
2018-12-20T23:29:49.748Z,-2.20
2018-12-20T23:32:23.933Z,-2.20
2018-12-20T23:34:58.400Z,-2.30
2018-12-20T23:37:32.673Z,-2.30
2018-12-20T23:40:07.174Z,-2.30
2018-12-20T23:42:41.493Z,-2.40
2018-12-20T23:45:15.753Z,-2.30
2018-12-20T23:47:49.834Z,-2.40
2018-12-20T23:50:24.113Z,-2.40
2018-12-20T23:52:57.958Z,-2.40
2018-12-20T23:55:32.403Z,-2.40
2018-12-20T23:58:06.693Z,-2.40
